sensor_id;sensor_type;location;lat;lon;timestamp;P1;durP1;ratioP1;P2;durP2;ratioP2
8361;SDS011;4218;48.326;14.304;2022-08-11T00:01:46;1.63;;;1.53;;
8361;SDS011;4218;48.326;14.304;2022-08-11T00:04:13;1.70;;;1.60;;
8361;SDS011;4218;48.326;14.304;2022-08-11T00:06:40;1.20;;;1.20;;
8361;SDS011;4218;48.326;14.304;2022-08-11T00:09:08;2.57;;;1.70;;
8361;SDS011;4218;48.326;14.304;2022-08-11T00:14:03;1.60;;;1.50;;
8361;SDS011;4218;48.326;14.304;2022-08-11T00:16:36;1.47;;;1.47;;
8361;SDS011;4218;48.326;14.304;2022-08-11T00:19:02;1.70;;;1.40;;
8361;SDS011;4218;48.326;14.304;2022-08-11T00:21:28;1.53;;;1.47;;
8361;SDS011;4218;48.326;14.304;2022-08-11T00:24:01;1.40;;;1.40;;
8361;SDS011;4218;48.326;14.304;2022-08-11T00:26:27;1.50;;;1.43;;
8361;SDS011;4218;48.326;14.304;2022-08-11T00:28:54;1.33;;;1.33;;
8361;SDS011;4218;48.326;14.304;2022-08-11T00:31:23;1.53;;;1.50;;
8361;SDS011;4218;48.326;14.304;2022-08-11T00:33:52;1.43;;;1.40;;
8361;SDS011;4218;48.326;14.304;2022-08-11T00:36:19;1.80;;;1.70;;
8361;SDS011;4218;48.326;14.304;2022-08-11T00:38:50;2.03;;;1.80;;
8361;SDS011;4218;48.326;14.304;2022-08-11T00:44:31;1.40;;;1.40;;
8361;SDS011;4218;48.326;14.304;2022-08-11T01:09:29;5.10;;;1.47;;
8361;SDS011;4218;48.326;14.304;2022-08-11T01:12:26;1.70;;;1.37;;
8361;SDS011;4218;48.326;14.304;2022-08-11T01:15:40;1.57;;;1.57;;
8361;SDS011;4218;48.326;14.304;2022-08-11T01:18:10;1.37;;;1.30;;
8361;SDS011;4218;48.326;14.304;2022-08-11T01:27:03;1.60;;;1.47;;
8361;SDS011;4218;48.326;14.304;2022-08-11T01:38:25;1.60;;;1.50;;
8361;SDS011;4218;48.326;14.304;2022-08-11T01:47:05;1.60;;;1.50;;
8361;SDS011;4218;48.326;14.304;2022-08-11T01:50:03;1.50;;;1.47;;
8361;SDS011;4218;48.326;14.304;2022-08-11T01:58:51;3.10;;;1.40;;
8361;SDS011;4218;48.326;14.304;2022-08-11T02:07:08;1.80;;;1.70;;
8361;SDS011;4218;48.326;14.304;2022-08-11T02:13:19;3.33;;;1.50;;
8361;SDS011;4218;48.326;14.304;2022-08-11T02:15:49;1.63;;;1.53;;
8361;SDS011;4218;48.326;14.304;2022-08-11T02:18:23;1.63;;;1.53;;
8361;SDS011;4218;48.326;14.304;2022-08-11T02:21:23;1.70;;;1.60;;
8361;SDS011;4218;48.326;14.304;2022-08-11T02:24:20;1.50;;;1.50;;
8361;SDS011;4218;48.326;14.304;2022-08-11T02:27:25;1.80;;;1.67;;
8361;SDS011;4218;48.326;14.304;2022-08-11T02:32:40;1.50;;;1.40;;
8361;SDS011;4218;48.326;14.304;2022-08-11T02:35:45;2.50;;;1.50;;
8361;SDS011;4218;48.326;14.304;2022-08-11T02:38:23;1.67;;;1.57;;
8361;SDS011;4218;48.326;14.304;2022-08-11T02:49:27;1.70;;;1.60;;
8361;SDS011;4218;48.326;14.304;2022-08-11T03:04:29;1.90;;;1.80;;
8361;SDS011;4218;48.326;14.304;2022-08-11T03:07:24;1.50;;;1.50;;
8361;SDS011;4218;48.326;14.304;2022-08-11T03:09:54;2.07;;;1.70;;
8361;SDS011;4218;48.326;14.304;2022-08-11T03:12:35;3.60;;;1.57;;
8361;SDS011;4218;48.326;14.304;2022-08-11T03:18:41;2.53;;;1.50;;
8361;SDS011;4218;48.326;14.304;2022-08-11T03:21:30;7.00;;;1.63;;
8361;SDS011;4218;48.326;14.304;2022-08-11T03:29:29;1.70;;;1.60;;
8361;SDS011;4218;48.326;14.304;2022-08-11T03:35:35;1.90;;;1.80;;
8361;SDS011;4218;48.326;14.304;2022-08-11T03:38:11;1.23;;;1.13;;
8361;SDS011;4218;48.326;14.304;2022-08-11T03:40:57;1.73;;;1.57;;
8361;SDS011;4218;48.326;14.304;2022-08-11T03:44:05;1.80;;;1.70;;
8361;SDS011;4218;48.326;14.304;2022-08-11T03:49:24;1.43;;;1.43;;
8361;SDS011;4218;48.326;14.304;2022-08-11T03:52:18;1.67;;;1.40;;
8361;SDS011;4218;48.326;14.304;2022-08-11T03:54:59;1.77;;;1.63;;
8361;SDS011;4218;48.326;14.304;2022-08-11T03:57:51;1.40;;;1.40;;
8361;SDS011;4218;48.326;14.304;2022-08-11T04:12:24;1.60;;;1.50;;
8361;SDS011;4218;48.326;14.304;2022-08-11T04:24:02;1.30;;;1.30;;
8361;SDS011;4218;48.326;14.304;2022-08-11T04:29:34;1.57;;;1.47;;
8361;SDS011;4218;48.326;14.304;2022-08-11T04:32:15;1.73;;;1.63;;
8361;SDS011;4218;48.326;14.304;2022-08-11T04:43:37;1.70;;;1.60;;
8361;SDS011;4218;48.326;14.304;2022-08-11T04:56:02;1.40;;;1.40;;
8361;SDS011;4218;48.326;14.304;2022-08-11T05:12:50;1.50;;;1.40;;
8361;SDS011;4218;48.326;14.304;2022-08-11T05:15:20;1.40;;;1.37;;
8361;SDS011;4218;48.326;14.304;2022-08-11T05:18:13;1.37;;;1.20;;
8361;SDS011;4218;48.326;14.304;2022-08-11T05:21:05;1.27;;;1.27;;
8361;SDS011;4218;48.326;14.304;2022-08-11T05:23:54;1.77;;;1.67;;
8361;SDS011;4218;48.326;14.304;2022-08-11T05:26:45;1.47;;;1.37;;
8361;SDS011;4218;48.326;14.304;2022-08-11T05:30:17;1.90;;;1.80;;
8361;SDS011;4218;48.326;14.304;2022-08-11T05:32:39;1.23;;;1.23;;
8361;SDS011;4218;48.326;14.304;2022-08-11T05:35:26;1.20;;;1.20;;
8361;SDS011;4218;48.326;14.304;2022-08-11T05:38:02;3.03;;;1.50;;
8361;SDS011;4218;48.326;14.304;2022-08-11T05:40:52;1.70;;;1.60;;
8361;SDS011;4218;48.326;14.304;2022-08-11T05:43:39;1.40;;;1.40;;
8361;SDS011;4218;48.326;14.304;2022-08-11T05:46:26;3.73;;;1.10;;
8361;SDS011;4218;48.326;14.304;2022-08-11T05:49:11;1.13;;;1.13;;
8361;SDS011;4218;48.326;14.304;2022-08-11T05:51:56;1.00;;;1.00;;
8361;SDS011;4218;48.326;14.304;2022-08-11T05:54:41;3.23;;;1.13;;
8361;SDS011;4218;48.326;14.304;2022-08-11T05:57:29;1.10;;;1.10;;
8361;SDS011;4218;48.326;14.304;2022-08-11T06:00:01;1.90;;;1.80;;
8361;SDS011;4218;48.326;14.304;2022-08-11T06:02:29;2.40;;;2.20;;
8361;SDS011;4218;48.326;14.304;2022-08-11T06:04:59;3.03;;;2.20;;
8361;SDS011;4218;48.326;14.304;2022-08-11T06:07:26;1.90;;;1.80;;
8361;SDS011;4218;48.326;14.304;2022-08-11T06:09:53;2.10;;;2.00;;
8361;SDS011;4218;48.326;14.304;2022-08-11T06:12:23;2.20;;;2.00;;
8361;SDS011;4218;48.326;14.304;2022-08-11T06:14:56;1.90;;;1.80;;
8361;SDS011;4218;48.326;14.304;2022-08-11T06:17:27;1.90;;;1.77;;
8361;SDS011;4218;48.326;14.304;2022-08-11T06:20:07;1.80;;;1.70;;
8361;SDS011;4218;48.326;14.304;2022-08-11T06:22:37;1.67;;;1.57;;
8361;SDS011;4218;48.326;14.304;2022-08-11T06:25:05;1.70;;;1.60;;
8361;SDS011;4218;48.326;14.304;2022-08-11T06:27:33;1.70;;;1.60;;
8361;SDS011;4218;48.326;14.304;2022-08-11T06:30:01;1.60;;;1.50;;
8361;SDS011;4218;48.326;14.304;2022-08-11T06:32:37;2.07;;;1.77;;
8361;SDS011;4218;48.326;14.304;2022-08-11T06:35:10;2.43;;;1.73;;
8361;SDS011;4218;48.326;14.304;2022-08-11T06:43:56;1.40;;;1.40;;
8361;SDS011;4218;48.326;14.304;2022-08-11T06:46:41;1.20;;;1.10;;
8361;SDS011;4218;48.326;14.304;2022-08-11T06:49:13;1.50;;;1.50;;
8361;SDS011;4218;48.326;14.304;2022-08-11T06:52:06;1.60;;;1.50;;
8361;SDS011;4218;48.326;14.304;2022-08-11T06:54:40;2.23;;;1.40;;
8361;SDS011;4218;48.326;14.304;2022-08-11T06:57:12;3.90;;;1.80;;
8361;SDS011;4218;48.326;14.304;2022-08-11T06:59:58;1.40;;;1.40;;
8361;SDS011;4218;48.326;14.304;2022-08-11T07:02:50;1.43;;;1.33;;
8361;SDS011;4218;48.326;14.304;2022-08-11T07:05:22;1.70;;;1.20;;
8361;SDS011;4218;48.326;14.304;2022-08-11T07:14:12;1.33;;;1.23;;
8361;SDS011;4218;48.326;14.304;2022-08-11T07:17:15;1.03;;;1.03;;
8361;SDS011;4218;48.326;14.304;2022-08-11T07:19:46;3.90;;;1.20;;
8361;SDS011;4218;48.326;14.304;2022-08-11T07:22:39;1.10;;;1.10;;
8361;SDS011;4218;48.326;14.304;2022-08-11T07:25:26;1.30;;;1.30;;
8361;SDS011;4218;48.326;14.304;2022-08-11T07:28:23;0.83;;;0.83;;
8361;SDS011;4218;48.326;14.304;2022-08-11T07:33:55;1.30;;;1.20;;
8361;SDS011;4218;48.326;14.304;2022-08-11T07:36:29;0.80;;;0.80;;
8361;SDS011;4218;48.326;14.304;2022-08-11T07:38:55;1.20;;;1.20;;
8361;SDS011;4218;48.326;14.304;2022-08-11T07:41:24;0.90;;;0.90;;
8361;SDS011;4218;48.326;14.304;2022-08-11T07:43:56;1.23;;;0.90;;
8361;SDS011;4218;48.326;14.304;2022-08-11T07:46:33;1.10;;;1.10;;
8361;SDS011;4218;48.326;14.304;2022-08-11T07:49:19;1.03;;;1.03;;
8361;SDS011;4218;48.326;14.304;2022-08-11T07:52:03;1.00;;;1.00;;
8361;SDS011;4218;48.326;14.304;2022-08-11T07:54:48;1.13;;;1.07;;
8361;SDS011;4218;48.326;14.304;2022-08-11T07:57:13;1.00;;;1.00;;
8361;SDS011;4218;48.326;14.304;2022-08-11T07:59:58;1.30;;;0.87;;
8361;SDS011;4218;48.326;14.304;2022-08-11T08:02:42;1.07;;;1.07;;
8361;SDS011;4218;48.326;14.304;2022-08-11T08:05:27;1.03;;;1.00;;
8361;SDS011;4218;48.326;14.304;2022-08-11T08:08:12;1.00;;;1.00;;
8361;SDS011;4218;48.326;14.304;2022-08-11T08:10:58;0.97;;;0.97;;
8361;SDS011;4218;48.326;14.304;2022-08-11T08:13:46;1.07;;;1.00;;
8361;SDS011;4218;48.326;14.304;2022-08-11T08:16:34;2.73;;;1.10;;
8361;SDS011;4218;48.326;14.304;2022-08-11T08:19:21;1.00;;;1.00;;
8361;SDS011;4218;48.326;14.304;2022-08-11T08:21:47;1.20;;;1.20;;
8361;SDS011;4218;48.326;14.304;2022-08-11T08:24:13;1.10;;;1.00;;
8361;SDS011;4218;48.326;14.304;2022-08-11T08:26:39;1.00;;;1.00;;
8361;SDS011;4218;48.326;14.304;2022-08-11T08:29:30;1.50;;;1.10;;
8361;SDS011;4218;48.326;14.304;2022-08-11T08:32:16;1.10;;;1.10;;
8361;SDS011;4218;48.326;14.304;2022-08-11T08:34:43;1.13;;;1.10;;
8361;SDS011;4218;48.326;14.304;2022-08-11T08:37:11;1.10;;;1.10;;
8361;SDS011;4218;48.326;14.304;2022-08-11T08:39:37;0.93;;;0.93;;
8361;SDS011;4218;48.326;14.304;2022-08-11T08:42:05;1.03;;;1.00;;
8361;SDS011;4218;48.326;14.304;2022-08-11T08:44:35;3.27;;;1.10;;
8361;SDS011;4218;48.326;14.304;2022-08-11T08:47:05;1.20;;;1.17;;
8361;SDS011;4218;48.326;14.304;2022-08-11T08:49:35;1.00;;;1.00;;
8361;SDS011;4218;48.326;14.304;2022-08-11T08:52:04;0.80;;;0.80;;
8361;SDS011;4218;48.326;14.304;2022-08-11T08:54:39;1.00;;;1.00;;
8361;SDS011;4218;48.326;14.304;2022-08-11T08:57:07;1.07;;;1.07;;
8361;SDS011;4218;48.326;14.304;2022-08-11T08:59:39;1.00;;;1.00;;
8361;SDS011;4218;48.326;14.304;2022-08-11T09:02:06;1.10;;;1.00;;
8361;SDS011;4218;48.326;14.304;2022-08-11T09:04:37;1.00;;;1.00;;
8361;SDS011;4218;48.326;14.304;2022-08-11T09:07:11;0.77;;;0.77;;
8361;SDS011;4218;48.326;14.304;2022-08-11T09:09:43;1.00;;;1.00;;
8361;SDS011;4218;48.326;14.304;2022-08-11T09:12:12;1.00;;;1.00;;
8361;SDS011;4218;48.326;14.304;2022-08-11T09:14:39;0.90;;;0.90;;
8361;SDS011;4218;48.326;14.304;2022-08-11T09:17:28;1.00;;;1.00;;
8361;SDS011;4218;48.326;14.304;2022-08-11T09:20:02;2.50;;;1.17;;
8361;SDS011;4218;48.326;14.304;2022-08-11T09:22:34;1.10;;;1.10;;
8361;SDS011;4218;48.326;14.304;2022-08-11T09:25:24;0.90;;;0.90;;
8361;SDS011;4218;48.326;14.304;2022-08-11T09:28:10;1.00;;;1.00;;
8361;SDS011;4218;48.326;14.304;2022-08-11T09:30:36;1.33;;;1.10;;
8361;SDS011;4218;48.326;14.304;2022-08-11T09:33:05;1.10;;;1.10;;
8361;SDS011;4218;48.326;14.304;2022-08-11T09:35:34;1.47;;;0.90;;
8361;SDS011;4218;48.326;14.304;2022-08-11T09:38:03;0.93;;;0.93;;
8361;SDS011;4218;48.326;14.304;2022-08-11T09:40:48;1.00;;;1.00;;
8361;SDS011;4218;48.326;14.304;2022-08-11T09:43:16;1.30;;;1.10;;
8361;SDS011;4218;48.326;14.304;2022-08-11T09:46:10;1.07;;;1.07;;
8361;SDS011;4218;48.326;14.304;2022-08-11T09:48:39;1.27;;;1.27;;
8361;SDS011;4218;48.326;14.304;2022-08-11T09:51:10;1.00;;;1.00;;
8361;SDS011;4218;48.326;14.304;2022-08-11T09:53:37;0.83;;;0.83;;
8361;SDS011;4218;48.326;14.304;2022-08-11T09:56:14;1.13;;;1.13;;
8361;SDS011;4218;48.326;14.304;2022-08-11T09:59:00;1.03;;;1.03;;
8361;SDS011;4218;48.326;14.304;2022-08-11T10:01:28;1.13;;;1.10;;
8361;SDS011;4218;48.326;14.304;2022-08-11T10:04:10;1.17;;;0.90;;
8361;SDS011;4218;48.326;14.304;2022-08-11T10:06:39;1.10;;;1.00;;
8361;SDS011;4218;48.326;14.304;2022-08-11T10:09:25;1.03;;;1.03;;
8361;SDS011;4218;48.326;14.304;2022-08-11T10:11:55;0.97;;;0.97;;
8361;SDS011;4218;48.326;14.304;2022-08-11T10:14:22;1.97;;;0.97;;
8361;SDS011;4218;48.326;14.304;2022-08-11T10:17:06;0.80;;;0.80;;
8361;SDS011;4218;48.326;14.304;2022-08-11T10:19:33;1.00;;;1.00;;
8361;SDS011;4218;48.326;14.304;2022-08-11T10:22:02;0.90;;;0.90;;
8361;SDS011;4218;48.326;14.304;2022-08-11T10:24:47;0.90;;;0.90;;
8361;SDS011;4218;48.326;14.304;2022-08-11T10:27:32;1.00;;;1.00;;
8361;SDS011;4218;48.326;14.304;2022-08-11T10:29:59;0.90;;;0.90;;
8361;SDS011;4218;48.326;14.304;2022-08-11T10:32:43;1.10;;;1.10;;
8361;SDS011;4218;48.326;14.304;2022-08-11T10:35:28;1.10;;;1.10;;
8361;SDS011;4218;48.326;14.304;2022-08-11T10:37:55;0.87;;;0.87;;
8361;SDS011;4218;48.326;14.304;2022-08-11T10:40:23;0.90;;;0.90;;
8361;SDS011;4218;48.326;14.304;2022-08-11T10:42:51;1.10;;;1.10;;
8361;SDS011;4218;48.326;14.304;2022-08-11T10:45:37;1.23;;;0.90;;
8361;SDS011;4218;48.326;14.304;2022-08-11T10:48:25;0.80;;;0.80;;
8361;SDS011;4218;48.326;14.304;2022-08-11T10:50:52;1.13;;;1.00;;
8361;SDS011;4218;48.326;14.304;2022-08-11T10:53:39;1.00;;;1.00;;
8361;SDS011;4218;48.326;14.304;2022-08-11T10:56:34;1.00;;;1.00;;
8361;SDS011;4218;48.326;14.304;2022-08-11T10:59:22;1.95;;;1.13;;
8361;SDS011;4218;48.326;14.304;2022-08-11T11:01:51;1.38;;;0.98;;
8361;SDS011;4218;48.326;14.304;2022-08-11T11:04:23;0.90;;;0.90;;
8361;SDS011;4218;48.326;14.304;2022-08-11T11:07:16;0.82;;;0.82;;
8361;SDS011;4218;48.326;14.304;2022-08-11T11:10:04;1.00;;;1.00;;
8361;SDS011;4218;48.326;14.304;2022-08-11T11:12:36;1.00;;;1.00;;
8361;SDS011;4218;48.326;14.304;2022-08-11T11:15:24;0.70;;;0.70;;
8361;SDS011;4218;48.326;14.304;2022-08-11T11:18:14;0.88;;;0.88;;
8361;SDS011;4218;48.326;14.304;2022-08-11T11:20:43;1.00;;;1.00;;
8361;SDS011;4218;48.326;14.304;2022-08-11T11:31:46;0.77;;;0.77;;
8361;SDS011;4218;48.326;14.304;2022-08-11T11:36:54;0.77;;;0.77;;
8361;SDS011;4218;48.326;14.304;2022-08-11T11:39:26;0.95;;;0.93;;
8361;SDS011;4218;48.326;14.304;2022-08-11T11:41:55;1.13;;;1.00;;
8361;SDS011;4218;48.326;14.304;2022-08-11T11:44:23;0.98;;;0.98;;
8361;SDS011;4218;48.326;14.304;2022-08-11T11:46:50;0.75;;;0.75;;
8361;SDS011;4218;48.326;14.304;2022-08-11T11:49:17;0.80;;;0.80;;
8361;SDS011;4218;48.326;14.304;2022-08-11T11:51:45;0.95;;;0.95;;
8361;SDS011;4218;48.326;14.304;2022-08-11T11:54:14;0.93;;;0.93;;
8361;SDS011;4218;48.326;14.304;2022-08-11T11:56:40;0.82;;;0.82;;
8361;SDS011;4218;48.326;14.304;2022-08-11T11:59:07;0.85;;;0.85;;
8361;SDS011;4218;48.326;14.304;2022-08-11T12:01:53;2.22;;;1.60;;
8361;SDS011;4218;48.326;14.304;2022-08-11T12:04:30;0.90;;;0.90;;
8361;SDS011;4218;48.326;14.304;2022-08-11T12:07:01;0.90;;;0.90;;
8361;SDS011;4218;48.326;14.304;2022-08-11T12:09:50;0.88;;;0.88;;
8361;SDS011;4218;48.326;14.304;2022-08-11T12:12:16;0.80;;;0.80;;
8361;SDS011;4218;48.326;14.304;2022-08-11T12:15:01;5.63;;;0.93;;
8361;SDS011;4218;48.326;14.304;2022-08-11T12:17:26;0.80;;;0.80;;
8361;SDS011;4218;48.326;14.304;2022-08-11T12:19:52;1.00;;;1.00;;
8361;SDS011;4218;48.326;14.304;2022-08-11T12:22:18;0.98;;;0.98;;
8361;SDS011;4218;48.326;14.304;2022-08-11T12:25:05;0.70;;;0.70;;
8361;SDS011;4218;48.326;14.304;2022-08-11T12:27:52;0.90;;;0.90;;
8361;SDS011;4218;48.326;14.304;2022-08-11T12:30:18;0.95;;;0.95;;
8361;SDS011;4218;48.326;14.304;2022-08-11T12:32:44;0.80;;;0.80;;
8361;SDS011;4218;48.326;14.304;2022-08-11T12:35:10;0.77;;;0.77;;
8361;SDS011;4218;48.326;14.304;2022-08-11T12:37:39;0.90;;;0.90;;
8361;SDS011;4218;48.326;14.304;2022-08-11T12:40:11;1.10;;;1.00;;
8361;SDS011;4218;48.326;14.304;2022-08-11T12:43:01;0.70;;;0.70;;
8361;SDS011;4218;48.326;14.304;2022-08-11T12:45:48;0.75;;;0.75;;
8361;SDS011;4218;48.326;14.304;2022-08-11T12:48:22;0.77;;;0.77;;
8361;SDS011;4218;48.326;14.304;2022-08-11T12:51:10;0.70;;;0.70;;
8361;SDS011;4218;48.326;14.304;2022-08-11T12:54:00;0.75;;;0.75;;
8361;SDS011;4218;48.326;14.304;2022-08-11T12:56:36;0.80;;;0.80;;
8361;SDS011;4218;48.326;14.304;2022-08-11T12:59:23;0.90;;;0.90;;
8361;SDS011;4218;48.326;14.304;2022-08-11T13:02:08;0.73;;;0.73;;
8361;SDS011;4218;48.326;14.304;2022-08-11T13:04:57;1.15;;;1.00;;
8361;SDS011;4218;48.326;14.304;2022-08-11T13:07:27;0.82;;;0.82;;
8361;SDS011;4218;48.326;14.304;2022-08-11T13:09:56;0.60;;;0.60;;
8361;SDS011;4218;48.326;14.304;2022-08-11T13:12:22;0.73;;;0.73;;
8361;SDS011;4218;48.326;14.304;2022-08-11T13:15:09;0.90;;;0.90;;
8361;SDS011;4218;48.326;14.304;2022-08-11T13:17:37;0.70;;;0.70;;
8361;SDS011;4218;48.326;14.304;2022-08-11T13:20:04;0.80;;;0.80;;
8361;SDS011;4218;48.326;14.304;2022-08-11T13:22:32;0.98;;;0.98;;
8361;SDS011;4218;48.326;14.304;2022-08-11T13:24:58;0.88;;;0.88;;
8361;SDS011;4218;48.326;14.304;2022-08-11T13:27:23;0.90;;;0.90;;
8361;SDS011;4218;48.326;14.304;2022-08-11T13:29:49;0.90;;;0.90;;
8361;SDS011;4218;48.326;14.304;2022-08-11T13:32:36;1.05;;;0.80;;
8361;SDS011;4218;48.326;14.304;2022-08-11T13:35:03;0.80;;;0.80;;
8361;SDS011;4218;48.326;14.304;2022-08-11T13:37:33;0.98;;;0.98;;
8361;SDS011;4218;48.326;14.304;2022-08-11T13:40:05;0.80;;;0.80;;
8361;SDS011;4218;48.326;14.304;2022-08-11T13:42:32;0.70;;;0.70;;
8361;SDS011;4218;48.326;14.304;2022-08-11T13:44:58;0.80;;;0.80;;
8361;SDS011;4218;48.326;14.304;2022-08-11T13:47:24;0.80;;;0.80;;
8361;SDS011;4218;48.326;14.304;2022-08-11T13:49:50;0.88;;;0.88;;
8361;SDS011;4218;48.326;14.304;2022-08-11T13:52:19;0.90;;;0.90;;
8361;SDS011;4218;48.326;14.304;2022-08-11T13:54:50;0.70;;;0.70;;
8361;SDS011;4218;48.326;14.304;2022-08-11T13:57:28;0.60;;;0.60;;
8361;SDS011;4218;48.326;14.304;2022-08-11T13:59:57;0.85;;;0.85;;
8361;SDS011;4218;48.326;14.304;2022-08-11T14:02:50;0.80;;;0.80;;
8361;SDS011;4218;48.326;14.304;2022-08-11T14:05:40;0.90;;;0.90;;
8361;SDS011;4218;48.326;14.304;2022-08-11T14:08:25;1.00;;;1.00;;
8361;SDS011;4218;48.326;14.304;2022-08-11T14:11:07;0.88;;;0.88;;
8361;SDS011;4218;48.326;14.304;2022-08-11T14:19:50;0.80;;;0.80;;
8361;SDS011;4218;48.326;14.304;2022-08-11T14:22:54;0.98;;;0.90;;
8361;SDS011;4218;48.326;14.304;2022-08-11T14:25:50;0.77;;;0.77;;
8361;SDS011;4218;48.326;14.304;2022-08-11T14:35:04;0.80;;;0.80;;
8361;SDS011;4218;48.326;14.304;2022-08-11T14:41:22;0.95;;;0.85;;
8361;SDS011;4218;48.326;14.304;2022-08-11T14:58:15;1.60;;;0.90;;
8361;SDS011;4218;48.326;14.304;2022-08-11T15:00:50;1.02;;;1.00;;
8361;SDS011;4218;48.326;14.304;2022-08-11T15:03:43;0.80;;;0.80;;
8361;SDS011;4218;48.326;14.304;2022-08-11T15:23:09;1.95;;;0.88;;
8361;SDS011;4218;48.326;14.304;2022-08-11T15:35:57;1.10;;;0.90;;
8361;SDS011;4218;48.326;14.304;2022-08-11T15:45:43;0.80;;;0.80;;
8361;SDS011;4218;48.326;14.304;2022-08-11T15:51:54;1.17;;;0.90;;
8361;SDS011;4218;48.326;14.304;2022-08-11T15:55:05;1.07;;;1.07;;
8361;SDS011;4218;48.326;14.304;2022-08-11T15:57:31;0.80;;;0.80;;
8361;SDS011;4218;48.326;14.304;2022-08-11T16:00:17;1.10;;;0.97;;
8361;SDS011;4218;48.326;14.304;2022-08-11T16:03:01;1.10;;;1.10;;
8361;SDS011;4218;48.326;14.304;2022-08-11T16:05:47;1.10;;;1.10;;
8361;SDS011;4218;48.326;14.304;2022-08-11T16:08:15;1.00;;;1.00;;
8361;SDS011;4218;48.326;14.304;2022-08-11T16:10:43;0.80;;;0.80;;
8361;SDS011;4218;48.326;14.304;2022-08-11T16:13:09;0.90;;;0.90;;
8361;SDS011;4218;48.326;14.304;2022-08-11T16:15:38;0.70;;;0.70;;
8361;SDS011;4218;48.326;14.304;2022-08-11T16:18:26;0.90;;;0.90;;
8361;SDS011;4218;48.326;14.304;2022-08-11T16:21:04;0.80;;;0.80;;
8361;SDS011;4218;48.326;14.304;2022-08-11T16:23:34;0.90;;;0.90;;
8361;SDS011;4218;48.326;14.304;2022-08-11T16:26:02;1.00;;;1.00;;
8361;SDS011;4218;48.326;14.304;2022-08-11T16:28:29;0.90;;;0.90;;
8361;SDS011;4218;48.326;14.304;2022-08-11T16:30:57;1.13;;;1.13;;
8361;SDS011;4218;48.326;14.304;2022-08-11T16:33:24;0.90;;;0.90;;
8361;SDS011;4218;48.326;14.304;2022-08-11T16:35:50;1.10;;;1.10;;
8361;SDS011;4218;48.326;14.304;2022-08-11T16:38:34;0.90;;;0.90;;
8361;SDS011;4218;48.326;14.304;2022-08-11T16:41:12;0.93;;;0.93;;
8361;SDS011;4218;48.326;14.304;2022-08-11T16:44:00;1.03;;;1.03;;
8361;SDS011;4218;48.326;14.304;2022-08-11T16:46:45;0.80;;;0.80;;
8361;SDS011;4218;48.326;14.304;2022-08-11T16:49:34;3.37;;;1.03;;
8361;SDS011;4218;48.326;14.304;2022-08-11T16:52:03;0.80;;;0.80;;
8361;SDS011;4218;48.326;14.304;2022-08-11T16:54:32;0.90;;;0.90;;
8361;SDS011;4218;48.326;14.304;2022-08-11T16:57:19;2.17;;;0.80;;
8361;SDS011;4218;48.326;14.304;2022-08-11T17:00:07;2.10;;;0.93;;
8361;SDS011;4218;48.326;14.304;2022-08-11T17:02:39;0.90;;;0.90;;
8361;SDS011;4218;48.326;14.304;2022-08-11T17:05:25;0.67;;;0.67;;
8361;SDS011;4218;48.326;14.304;2022-08-11T17:08:11;0.80;;;0.80;;
8361;SDS011;4218;48.326;14.304;2022-08-11T17:11:02;0.90;;;0.90;;
8361;SDS011;4218;48.326;14.304;2022-08-11T17:13:49;0.80;;;0.80;;
8361;SDS011;4218;48.326;14.304;2022-08-11T17:16:21;0.70;;;0.70;;
8361;SDS011;4218;48.326;14.304;2022-08-11T17:18:58;0.90;;;0.90;;
8361;SDS011;4218;48.326;14.304;2022-08-11T17:21:32;0.80;;;0.80;;
8361;SDS011;4218;48.326;14.304;2022-08-11T17:24:08;0.90;;;0.90;;
8361;SDS011;4218;48.326;14.304;2022-08-11T17:26:38;0.82;;;0.82;;
8361;SDS011;4218;48.326;14.304;2022-08-11T17:29:23;0.90;;;0.90;;
8361;SDS011;4218;48.326;14.304;2022-08-11T17:31:57;0.93;;;0.90;;
8361;SDS011;4218;48.326;14.304;2022-08-11T17:34:43;0.77;;;0.77;;
8361;SDS011;4218;48.326;14.304;2022-08-11T17:37:28;0.90;;;0.90;;
8361;SDS011;4218;48.326;14.304;2022-08-11T17:39:57;0.93;;;0.93;;
8361;SDS011;4218;48.326;14.304;2022-08-11T17:42:26;0.80;;;0.80;;
8361;SDS011;4218;48.326;14.304;2022-08-11T17:45:12;0.80;;;0.80;;
8361;SDS011;4218;48.326;14.304;2022-08-11T17:47:58;1.07;;;1.07;;
8361;SDS011;4218;48.326;14.304;2022-08-11T17:50:44;1.33;;;1.20;;
8361;SDS011;4218;48.326;14.304;2022-08-11T17:53:12;1.20;;;1.00;;
8361;SDS011;4218;48.326;14.304;2022-08-11T17:55:58;0.93;;;0.93;;
8361;SDS011;4218;48.326;14.304;2022-08-11T17:58:44;1.70;;;1.27;;
8361;SDS011;4218;48.326;14.304;2022-08-11T18:01:30;0.97;;;0.80;;
8361;SDS011;4218;48.326;14.304;2022-08-11T18:03:59;1.10;;;1.10;;
8361;SDS011;4218;48.326;14.304;2022-08-11T18:06:30;1.00;;;1.00;;
8361;SDS011;4218;48.326;14.304;2022-08-11T18:08:58;1.13;;;1.10;;
8361;SDS011;4218;48.326;14.304;2022-08-11T18:11:44;1.07;;;1.07;;
8361;SDS011;4218;48.326;14.304;2022-08-11T18:14:30;1.03;;;0.97;;
8361;SDS011;4218;48.326;14.304;2022-08-11T18:17:15;1.10;;;1.10;;
8361;SDS011;4218;48.326;14.304;2022-08-11T18:19:59;1.00;;;1.00;;
8361;SDS011;4218;48.326;14.304;2022-08-11T18:22:43;1.27;;;1.17;;
8361;SDS011;4218;48.326;14.304;2022-08-11T18:25:31;1.00;;;1.00;;
8361;SDS011;4218;48.326;14.304;2022-08-11T18:28:22;1.40;;;1.30;;
8361;SDS011;4218;48.326;14.304;2022-08-11T18:31:10;1.00;;;1.00;;
8361;SDS011;4218;48.326;14.304;2022-08-11T18:34:00;0.80;;;0.80;;
8361;SDS011;4218;48.326;14.304;2022-08-11T18:36:49;1.27;;;0.80;;
8361;SDS011;4218;48.326;14.304;2022-08-11T18:39:43;1.23;;;1.17;;
8361;SDS011;4218;48.326;14.304;2022-08-11T18:42:30;2.67;;;0.90;;
8361;SDS011;4218;48.326;14.304;2022-08-11T18:45:16;0.93;;;0.93;;
8361;SDS011;4218;48.326;14.304;2022-08-11T18:48:04;0.97;;;0.97;;
8361;SDS011;4218;48.326;14.304;2022-08-11T18:50:55;0.70;;;0.70;;
8361;SDS011;4218;48.326;14.304;2022-08-11T18:53:41;0.70;;;0.70;;
8361;SDS011;4218;48.326;14.304;2022-08-11T18:56:27;1.00;;;1.00;;
8361;SDS011;4218;48.326;14.304;2022-08-11T18:59:12;0.87;;;0.87;;
8361;SDS011;4218;48.326;14.304;2022-08-11T19:02:00;0.90;;;0.90;;
8361;SDS011;4218;48.326;14.304;2022-08-11T19:04:45;1.00;;;1.00;;
8361;SDS011;4218;48.326;14.304;2022-08-11T19:07:29;1.13;;;1.03;;
8361;SDS011;4218;48.326;14.304;2022-08-11T19:10:16;1.03;;;0.93;;
8361;SDS011;4218;48.326;14.304;2022-08-11T19:13:02;0.90;;;0.90;;
8361;SDS011;4218;48.326;14.304;2022-08-11T19:15:47;0.90;;;0.90;;
8361;SDS011;4218;48.326;14.304;2022-08-11T19:18:32;2.43;;;1.13;;
8361;SDS011;4218;48.326;14.304;2022-08-11T19:21:17;2.40;;;0.80;;
8361;SDS011;4218;48.326;14.304;2022-08-11T19:24:03;1.13;;;1.00;;
8361;SDS011;4218;48.326;14.304;2022-08-11T19:26:49;0.90;;;0.90;;
8361;SDS011;4218;48.326;14.304;2022-08-11T19:29:36;1.03;;;1.03;;
8361;SDS011;4218;48.326;14.304;2022-08-11T19:32:22;1.40;;;1.27;;
8361;SDS011;4218;48.326;14.304;2022-08-11T19:35:06;1.50;;;1.00;;
8361;SDS011;4218;48.326;14.304;2022-08-11T19:37:51;1.80;;;0.90;;
8361;SDS011;4218;48.326;14.304;2022-08-11T19:40:36;1.43;;;1.03;;
8361;SDS011;4218;48.326;14.304;2022-08-11T19:43:21;1.00;;;1.00;;
8361;SDS011;4218;48.326;14.304;2022-08-11T19:46:07;0.83;;;0.83;;
8361;SDS011;4218;48.326;14.304;2022-08-11T19:48:53;0.70;;;0.70;;
8361;SDS011;4218;48.326;14.304;2022-08-11T19:51:38;0.90;;;0.90;;
8361;SDS011;4218;48.326;14.304;2022-08-11T19:54:27;0.93;;;0.93;;
8361;SDS011;4218;48.326;14.304;2022-08-11T19:57:13;0.80;;;0.80;;
8361;SDS011;4218;48.326;14.304;2022-08-11T20:00:00;1.13;;;1.13;;
8361;SDS011;4218;48.326;14.304;2022-08-11T20:02:46;0.80;;;0.80;;
8361;SDS011;4218;48.326;14.304;2022-08-11T20:05:30;1.23;;;1.20;;
8361;SDS011;4218;48.326;14.304;2022-08-11T20:08:16;1.10;;;1.10;;
8361;SDS011;4218;48.326;14.304;2022-08-11T20:11:01;1.00;;;1.00;;
8361;SDS011;4218;48.326;14.304;2022-08-11T20:13:47;1.07;;;1.07;;
8361;SDS011;4218;48.326;14.304;2022-08-11T20:16:32;1.00;;;1.00;;
8361;SDS011;4218;48.326;14.304;2022-08-11T20:19:16;1.07;;;1.07;;
8361;SDS011;4218;48.326;14.304;2022-08-11T20:22:02;1.33;;;1.33;;
8361;SDS011;4218;48.326;14.304;2022-08-11T20:24:47;1.07;;;1.07;;